sensor_id;sensor_type;location;lat;lon;timestamp;P1;durP1;ratioP1;P2;durP2;ratioP2
55827;SDS011;41758;51.992;5.890;2023-03-03T00:02:09;25.05;;;13.38;;
55827;SDS011;41758;51.992;5.890;2023-03-03T00:04:35;22.05;;;12.25;;
55827;SDS011;41758;51.992;5.890;2023-03-03T00:07:01;24.63;;;13.82;;
55827;SDS011;41758;51.992;5.890;2023-03-03T00:09:27;26.42;;;13.00;;
55827;SDS011;41758;51.992;5.890;2023-03-03T00:11:53;25.17;;;13.30;;
55827;SDS011;41758;51.992;5.890;2023-03-03T00:14:28;24.75;;;13.80;;
55827;SDS011;41758;51.992;5.890;2023-03-03T00:16:56;25.10;;;13.13;;
55827;SDS011;41758;51.992;5.890;2023-03-03T00:19:25;22.73;;;13.38;;
55827;SDS011;41758;51.992;5.890;2023-03-03T00:21:51;23.73;;;13.23;;
55827;SDS011;41758;51.992;5.890;2023-03-03T00:24:22;24.23;;;13.40;;
55827;SDS011;41758;51.992;5.890;2023-03-03T00:27:01;29.00;;;14.90;;
55827;SDS011;41758;51.992;5.890;2023-03-03T00:29:43;23.92;;;14.13;;
55827;SDS011;41758;51.992;5.890;2023-03-03T00:34:41;29.05;;;14.75;;
55827;SDS011;41758;51.992;5.890;2023-03-03T00:37:50;26.02;;;14.70;;
55827;SDS011;41758;51.992;5.890;2023-03-03T00:40:01;33.22;;;14.95;;
55827;SDS011;41758;51.992;5.890;2023-03-03T00:42:33;29.48;;;15.30;;
55827;SDS011;41758;51.992;5.890;2023-03-03T00:45:00;24.98;;;13.48;;
55827;SDS011;41758;51.992;5.890;2023-03-03T00:52:39;28.45;;;14.55;;
55827;SDS011;41758;51.992;5.890;2023-03-03T00:55:09;32.58;;;14.13;;
55827;SDS011;41758;51.992;5.890;2023-03-03T00:57:36;24.63;;;13.45;;
55827;SDS011;41758;51.992;5.890;2023-03-03T01:00:04;23.83;;;13.57;;
55827;SDS011;41758;51.992;5.890;2023-03-03T01:02:31;24.38;;;12.60;;
55827;SDS011;41758;51.992;5.890;2023-03-03T01:04:58;24.17;;;13.00;;
55827;SDS011;41758;51.992;5.890;2023-03-03T01:07:24;27.08;;;12.80;;
55827;SDS011;41758;51.992;5.890;2023-03-03T01:09:50;21.38;;;11.73;;
55827;SDS011;41758;51.992;5.890;2023-03-03T01:12:16;19.00;;;10.82;;
55827;SDS011;41758;51.992;5.890;2023-03-03T01:14:41;22.52;;;11.38;;
55827;SDS011;41758;51.992;5.890;2023-03-03T01:17:09;20.55;;;10.57;;
55827;SDS011;41758;51.992;5.890;2023-03-03T01:19:35;19.77;;;11.32;;
55827;SDS011;41758;51.992;5.890;2023-03-03T01:22:00;19.35;;;10.50;;
55827;SDS011;41758;51.992;5.890;2023-03-03T01:24:27;18.75;;;10.35;;
55827;SDS011;41758;51.992;5.890;2023-03-03T01:26:52;20.55;;;11.07;;
55827;SDS011;41758;51.992;5.890;2023-03-03T01:29:18;19.95;;;11.45;;
55827;SDS011;41758;51.992;5.890;2023-03-03T01:31:44;17.45;;;10.82;;
55827;SDS011;41758;51.992;5.890;2023-03-03T01:34:09;21.50;;;11.95;;
55827;SDS011;41758;51.992;5.890;2023-03-03T01:36:41;21.20;;;11.95;;
55827;SDS011;41758;51.992;5.890;2023-03-03T01:39:09;21.65;;;11.57;;
55827;SDS011;41758;51.992;5.890;2023-03-03T01:41:35;22.00;;;12.10;;
55827;SDS011;41758;51.992;5.890;2023-03-03T01:44:00;23.02;;;11.70;;
55827;SDS011;41758;51.992;5.890;2023-03-03T01:46:47;21.15;;;12.38;;
55827;SDS011;41758;51.992;5.890;2023-03-03T01:49:28;24.77;;;12.15;;
55827;SDS011;41758;51.992;5.890;2023-03-03T01:52:01;23.83;;;12.38;;
55827;SDS011;41758;51.992;5.890;2023-03-03T01:54:41;24.33;;;11.30;;
55827;SDS011;41758;51.992;5.890;2023-03-03T01:57:14;27.38;;;12.68;;
55827;SDS011;41758;51.992;5.890;2023-03-03T01:59:47;23.20;;;12.35;;
55827;SDS011;41758;51.992;5.890;2023-03-03T02:02:15;21.77;;;12.05;;
55827;SDS011;41758;51.992;5.890;2023-03-03T02:04:41;21.30;;;11.48;;
55827;SDS011;41758;51.992;5.890;2023-03-03T02:07:08;22.00;;;11.57;;
55827;SDS011;41758;51.992;5.890;2023-03-03T02:12:36;23.48;;;12.07;;
55827;SDS011;41758;51.992;5.890;2023-03-03T02:15:14;25.50;;;13.52;;
55827;SDS011;41758;51.992;5.890;2023-03-03T02:17:45;22.73;;;12.57;;
55827;SDS011;41758;51.992;5.890;2023-03-03T02:23:06;22.92;;;12.35;;
55827;SDS011;41758;51.992;5.890;2023-03-03T02:28:30;22.73;;;12.40;;
55827;SDS011;41758;51.992;5.890;2023-03-03T02:31:02;23.00;;;12.30;;
55827;SDS011;41758;51.992;5.890;2023-03-03T02:33:31;26.25;;;12.43;;
55827;SDS011;41758;51.992;5.890;2023-03-03T02:35:57;22.13;;;12.10;;
55827;SDS011;41758;51.992;5.890;2023-03-03T02:38:36;21.80;;;11.93;;
55827;SDS011;41758;51.992;5.890;2023-03-03T02:44:00;20.70;;;11.27;;
55827;SDS011;41758;51.992;5.890;2023-03-03T02:46:39;20.83;;;10.90;;
55827;SDS011;41758;51.992;5.890;2023-03-03T02:49:06;21.50;;;10.63;;
55827;SDS011;41758;51.992;5.890;2023-03-03T02:51:34;20.40;;;10.40;;
55827;SDS011;41758;51.992;5.890;2023-03-03T02:54:00;18.70;;;10.63;;
55827;SDS011;41758;51.992;5.890;2023-03-03T02:56:29;25.15;;;11.63;;
55827;SDS011;41758;51.992;5.890;2023-03-03T02:58:55;19.98;;;10.45;;
55827;SDS011;41758;51.992;5.890;2023-03-03T03:01:23;19.00;;;10.13;;
55827;SDS011;41758;51.992;5.890;2023-03-03T03:03:52;22.52;;;11.23;;
55827;SDS011;41758;51.992;5.890;2023-03-03T03:06:20;22.85;;;11.38;;
55827;SDS011;41758;51.992;5.890;2023-03-03T03:08:46;21.80;;;11.38;;
55827;SDS011;41758;51.992;5.890;2023-03-03T03:11:12;22.02;;;10.75;;
55827;SDS011;41758;51.992;5.890;2023-03-03T03:13:38;23.13;;;11.95;;
55827;SDS011;41758;51.992;5.890;2023-03-03T03:16:05;24.38;;;12.15;;
55827;SDS011;41758;51.992;5.890;2023-03-03T03:18:31;22.88;;;12.15;;
55827;SDS011;41758;51.992;5.890;2023-03-03T03:21:04;26.50;;;12.07;;
55827;SDS011;41758;51.992;5.890;2023-03-03T03:23:34;25.73;;;13.13;;
55827;SDS011;41758;51.992;5.890;2023-03-03T03:26:00;21.85;;;11.50;;
55827;SDS011;41758;51.992;5.890;2023-03-03T03:28:27;29.52;;;12.50;;
55827;SDS011;41758;51.992;5.890;2023-03-03T03:30:53;22.27;;;11.80;;
55827;SDS011;41758;51.992;5.890;2023-03-03T03:33:20;27.08;;;14.00;;
55827;SDS011;41758;51.992;5.890;2023-03-03T03:35:47;23.13;;;11.98;;
55827;SDS011;41758;51.992;5.890;2023-03-03T03:38:15;23.80;;;12.18;;
55827;SDS011;41758;51.992;5.890;2023-03-03T03:40:42;23.10;;;12.23;;
55827;SDS011;41758;51.992;5.890;2023-03-03T03:43:08;26.35;;;13.38;;
55827;SDS011;41758;51.992;5.890;2023-03-03T03:45:34;28.17;;;13.30;;
55827;SDS011;41758;51.992;5.890;2023-03-03T03:48:01;24.00;;;13.07;;
55827;SDS011;41758;51.992;5.890;2023-03-03T03:50:28;23.50;;;12.73;;
55827;SDS011;41758;51.992;5.890;2023-03-03T03:52:55;29.42;;;13.85;;
55827;SDS011;41758;51.992;5.890;2023-03-03T03:55:21;27.60;;;12.73;;
55827;SDS011;41758;51.992;5.890;2023-03-03T03:57:47;26.65;;;13.20;;
55827;SDS011;41758;51.992;5.890;2023-03-03T04:00:14;28.33;;;14.70;;
55827;SDS011;41758;51.992;5.890;2023-03-03T04:02:42;28.17;;;12.85;;
55827;SDS011;41758;51.992;5.890;2023-03-03T04:05:11;29.52;;;14.52;;
55827;SDS011;41758;51.992;5.890;2023-03-03T04:07:38;25.90;;;13.27;;
55827;SDS011;41758;51.992;5.890;2023-03-03T04:10:06;30.85;;;13.52;;
55827;SDS011;41758;51.992;5.890;2023-03-03T04:12:32;29.02;;;13.82;;
55827;SDS011;41758;51.992;5.890;2023-03-03T04:15:06;30.13;;;15.02;;
55827;SDS011;41758;51.992;5.890;2023-03-03T04:17:34;29.52;;;14.80;;
55827;SDS011;41758;51.992;5.890;2023-03-03T04:20:01;29.48;;;14.10;;
55827;SDS011;41758;51.992;5.890;2023-03-03T04:22:28;27.55;;;14.23;;
55827;SDS011;41758;51.992;5.890;2023-03-03T04:24:58;26.60;;;13.40;;
55827;SDS011;41758;51.992;5.890;2023-03-03T04:27:25;31.67;;;14.02;;
55827;SDS011;41758;51.992;5.890;2023-03-03T04:29:52;28.85;;;13.32;;
55827;SDS011;41758;51.992;5.890;2023-03-03T04:32:18;29.58;;;13.85;;
55827;SDS011;41758;51.992;5.890;2023-03-03T04:34:45;26.23;;;13.23;;
55827;SDS011;41758;51.992;5.890;2023-03-03T04:37:11;28.27;;;13.52;;
55827;SDS011;41758;51.992;5.890;2023-03-03T04:39:37;32.40;;;12.98;;
55827;SDS011;41758;51.992;5.890;2023-03-03T04:42:03;26.38;;;12.65;;
55827;SDS011;41758;51.992;5.890;2023-03-03T04:44:29;30.50;;;13.73;;
55827;SDS011;41758;51.992;5.890;2023-03-03T04:46:55;26.55;;;13.40;;
55827;SDS011;41758;51.992;5.890;2023-03-03T04:49:22;27.60;;;13.68;;
55827;SDS011;41758;51.992;5.890;2023-03-03T04:51:48;29.02;;;13.85;;
55827;SDS011;41758;51.992;5.890;2023-03-03T04:54:13;30.10;;;13.73;;
55827;SDS011;41758;51.992;5.890;2023-03-03T04:56:39;26.95;;;14.48;;
55827;SDS011;41758;51.992;5.890;2023-03-03T04:59:05;31.83;;;15.18;;
55827;SDS011;41758;51.992;5.890;2023-03-03T05:01:31;27.75;;;14.20;;
55827;SDS011;41758;51.992;5.890;2023-03-03T05:03:57;31.92;;;14.27;;
55827;SDS011;41758;51.992;5.890;2023-03-03T05:06:22;29.70;;;13.70;;
55827;SDS011;41758;51.992;5.890;2023-03-03T05:08:48;29.42;;;13.82;;
55827;SDS011;41758;51.992;5.890;2023-03-03T05:11:14;29.25;;;14.75;;
55827;SDS011;41758;51.992;5.890;2023-03-03T05:13:40;30.40;;;14.25;;
55827;SDS011;41758;51.992;5.890;2023-03-03T05:16:06;30.73;;;14.57;;
55827;SDS011;41758;51.992;5.890;2023-03-03T05:18:32;30.23;;;14.63;;
55827;SDS011;41758;51.992;5.890;2023-03-03T05:20:57;31.15;;;14.30;;
55827;SDS011;41758;51.992;5.890;2023-03-03T05:23:23;26.10;;;13.75;;
55827;SDS011;41758;51.992;5.890;2023-03-03T05:25:49;26.67;;;13.75;;
55827;SDS011;41758;51.992;5.890;2023-03-03T05:28:15;30.38;;;13.20;;
55827;SDS011;41758;51.992;5.890;2023-03-03T05:30:41;24.50;;;12.50;;
55827;SDS011;41758;51.992;5.890;2023-03-03T05:33:07;24.25;;;12.80;;
55827;SDS011;41758;51.992;5.890;2023-03-03T05:35:37;26.98;;;12.40;;
55827;SDS011;41758;51.992;5.890;2023-03-03T05:38:03;26.98;;;12.90;;
55827;SDS011;41758;51.992;5.890;2023-03-03T05:40:28;22.88;;;12.20;;
55827;SDS011;41758;51.992;5.890;2023-03-03T05:42:54;22.45;;;11.68;;
55827;SDS011;41758;51.992;5.890;2023-03-03T05:45:20;22.30;;;10.77;;
55827;SDS011;41758;51.992;5.890;2023-03-03T05:47:51;22.35;;;11.15;;
55827;SDS011;41758;51.992;5.890;2023-03-03T05:50:18;20.50;;;10.10;;
55827;SDS011;41758;51.992;5.890;2023-03-03T05:52:48;24.17;;;10.85;;
55827;SDS011;41758;51.992;5.890;2023-03-03T05:55:15;21.90;;;10.45;;
55827;SDS011;41758;51.992;5.890;2023-03-03T05:57:41;17.73;;;9.90;;
55827;SDS011;41758;51.992;5.890;2023-03-03T06:00:07;18.15;;;9.95;;
55827;SDS011;41758;51.992;5.890;2023-03-03T06:02:40;20.27;;;9.48;;
55827;SDS011;41758;51.992;5.890;2023-03-03T06:05:06;19.08;;;9.90;;
55827;SDS011;41758;51.992;5.890;2023-03-03T06:07:32;19.98;;;9.82;;
55827;SDS011;41758;51.992;5.890;2023-03-03T06:09:58;19.55;;;10.82;;
55827;SDS011;41758;51.992;5.890;2023-03-03T06:12:25;18.08;;;10.50;;
55827;SDS011;41758;51.992;5.890;2023-03-03T06:14:51;21.20;;;11.00;;
55827;SDS011;41758;51.992;5.890;2023-03-03T06:17:17;24.05;;;11.63;;
55827;SDS011;41758;51.992;5.890;2023-03-03T06:19:42;28.27;;;11.52;;
55827;SDS011;41758;51.992;5.890;2023-03-03T06:22:08;25.35;;;12.13;;
55827;SDS011;41758;51.992;5.890;2023-03-03T06:24:34;22.65;;;10.93;;
55827;SDS011;41758;51.992;5.890;2023-03-03T06:27:00;21.33;;;10.93;;
55827;SDS011;41758;51.992;5.890;2023-03-03T06:29:26;23.05;;;10.80;;
55827;SDS011;41758;51.992;5.890;2023-03-03T06:31:53;22.95;;;11.45;;
55827;SDS011;41758;51.992;5.890;2023-03-03T06:34:19;21.80;;;11.55;;
55827;SDS011;41758;51.992;5.890;2023-03-03T06:36:45;24.67;;;12.13;;
55827;SDS011;41758;51.992;5.890;2023-03-03T06:39:11;22.95;;;11.65;;
55827;SDS011;41758;51.992;5.890;2023-03-03T06:41:37;27.90;;;11.80;;
55827;SDS011;41758;51.992;5.890;2023-03-03T06:44:03;24.25;;;12.35;;
55827;SDS011;41758;51.992;5.890;2023-03-03T06:46:28;22.98;;;11.73;;
55827;SDS011;41758;51.992;5.890;2023-03-03T06:48:54;23.30;;;11.65;;
55827;SDS011;41758;51.992;5.890;2023-03-03T06:51:22;21.48;;;10.40;;
55827;SDS011;41758;51.992;5.890;2023-03-03T06:53:55;21.48;;;11.15;;
55827;SDS011;41758;51.992;5.890;2023-03-03T06:56:25;21.13;;;10.65;;
55827;SDS011;41758;51.992;5.890;2023-03-03T06:58:52;19.88;;;10.57;;
55827;SDS011;41758;51.992;5.890;2023-03-03T07:01:20;20.40;;;10.13;;
55827;SDS011;41758;51.992;5.890;2023-03-03T07:03:46;20.98;;;10.52;;
55827;SDS011;41758;51.992;5.890;2023-03-03T07:06:15;20.63;;;10.50;;
55827;SDS011;41758;51.992;5.890;2023-03-03T07:08:49;18.60;;;10.20;;
55827;SDS011;41758;51.992;5.890;2023-03-03T07:11:17;18.50;;;10.02;;
55827;SDS011;41758;51.992;5.890;2023-03-03T07:13:54;20.42;;;9.63;;
55827;SDS011;41758;51.992;5.890;2023-03-03T07:16:23;24.33;;;9.32;;
55827;SDS011;41758;51.992;5.890;2023-03-03T07:18:52;15.80;;;9.05;;
55827;SDS011;41758;51.992;5.890;2023-03-03T07:21:30;18.13;;;7.95;;
55827;SDS011;41758;51.992;5.890;2023-03-03T07:23:57;17.15;;;7.85;;
55827;SDS011;41758;51.992;5.890;2023-03-03T07:26:27;13.57;;;7.25;;
55827;SDS011;41758;51.992;5.890;2023-03-03T07:29:00;15.73;;;7.75;;
55827;SDS011;41758;51.992;5.890;2023-03-03T07:31:40;13.45;;;6.82;;
55827;SDS011;41758;51.992;5.890;2023-03-03T07:34:20;13.30;;;6.75;;
55827;SDS011;41758;51.992;5.890;2023-03-03T07:36:49;14.25;;;6.72;;
55827;SDS011;41758;51.992;5.890;2023-03-03T07:42:23;12.52;;;6.30;;
55827;SDS011;41758;51.992;5.890;2023-03-03T07:44:54;12.55;;;5.80;;
55827;SDS011;41758;51.992;5.890;2023-03-03T07:49:48;12.45;;;6.40;;
55827;SDS011;41758;51.992;5.890;2023-03-03T07:52:28;12.60;;;6.00;;
55827;SDS011;41758;51.992;5.890;2023-03-03T07:55:18;11.95;;;5.88;;
55827;SDS011;41758;51.992;5.890;2023-03-03T07:57:55;11.63;;;6.10;;
55827;SDS011;41758;51.992;5.890;2023-03-03T08:03:00;11.38;;;5.65;;
55827;SDS011;41758;51.992;5.890;2023-03-03T08:05:39;10.65;;;5.88;;
55827;SDS011;41758;51.992;5.890;2023-03-03T08:10:49;15.40;;;6.28;;
55827;SDS011;41758;51.992;5.890;2023-03-03T08:13:23;12.90;;;5.57;;
55827;SDS011;41758;51.992;5.890;2023-03-03T08:15:59;9.77;;;5.47;;
55827;SDS011;41758;51.992;5.890;2023-03-03T08:18:50;12.77;;;6.25;;
55827;SDS011;41758;51.992;5.890;2023-03-03T08:21:21;10.98;;;5.95;;
55827;SDS011;41758;51.992;5.890;2023-03-03T08:23:48;11.68;;;5.85;;
55827;SDS011;41758;51.992;5.890;2023-03-03T08:26:16;11.02;;;5.60;;
55827;SDS011;41758;51.992;5.890;2023-03-03T08:28:43;12.57;;;6.10;;
55827;SDS011;41758;51.992;5.890;2023-03-03T08:31:10;10.90;;;5.72;;
55827;SDS011;41758;51.992;5.890;2023-03-03T08:33:36;10.05;;;5.30;;
55827;SDS011;41758;51.992;5.890;2023-03-03T08:36:02;13.02;;;5.13;;
55827;SDS011;41758;51.992;5.890;2023-03-03T08:38:29;14.05;;;5.68;;
55827;SDS011;41758;51.992;5.890;2023-03-03T08:40:54;9.82;;;5.30;;
55827;SDS011;41758;51.992;5.890;2023-03-03T08:43:20;10.27;;;5.38;;
55827;SDS011;41758;51.992;5.890;2023-03-03T08:45:50;9.77;;;5.28;;
55827;SDS011;41758;51.992;5.890;2023-03-03T08:48:18;9.27;;;4.97;;
55827;SDS011;41758;51.992;5.890;2023-03-03T08:50:44;11.85;;;5.45;;
55827;SDS011;41758;51.992;5.890;2023-03-03T08:53:11;11.80;;;5.97;;
55827;SDS011;41758;51.992;5.890;2023-03-03T08:55:38;11.23;;;5.47;;
55827;SDS011;41758;51.992;5.890;2023-03-03T08:58:04;10.30;;;5.22;;
55827;SDS011;41758;51.992;5.890;2023-03-03T09:00:30;12.05;;;5.45;;
55827;SDS011;41758;51.992;5.890;2023-03-03T09:02:56;10.50;;;5.20;;
55827;SDS011;41758;51.992;5.890;2023-03-03T09:05:23;11.88;;;5.68;;
55827;SDS011;41758;51.992;5.890;2023-03-03T09:07:49;11.25;;;5.85;;
55827;SDS011;41758;51.992;5.890;2023-03-03T09:10:21;10.20;;;5.40;;
55827;SDS011;41758;51.992;5.890;2023-03-03T09:12:59;11.15;;;5.57;;
55827;SDS011;41758;51.992;5.890;2023-03-03T09:15:32;14.40;;;6.07;;
55827;SDS011;41758;51.992;5.890;2023-03-03T09:18:18;12.68;;;5.88;;
55827;SDS011;41758;51.992;5.890;2023-03-03T09:21:01;15.43;;;5.95;;
55827;SDS011;41758;51.992;5.890;2023-03-03T09:23:57;10.68;;;5.18;;
55827;SDS011;41758;51.992;5.890;2023-03-03T09:26:27;10.00;;;5.53;;
55827;SDS011;41758;51.992;5.890;2023-03-03T09:31:56;11.45;;;5.18;;
55827;SDS011;41758;51.992;5.890;2023-03-03T09:39:49;8.20;;;4.38;;
55827;SDS011;41758;51.992;5.890;2023-03-03T09:45:23;6.82;;;3.92;;
55827;SDS011;41758;51.992;5.890;2023-03-03T10:06:33;8.60;;;4.15;;
55827;SDS011;41758;51.992;5.890;2023-03-03T10:11:55;8.05;;;3.92;;
55827;SDS011;41758;51.992;5.890;2023-03-03T10:22:54;7.43;;;3.65;;
55827;SDS011;41758;51.992;5.890;2023-03-03T10:28:16;10.68;;;4.35;;
55827;SDS011;41758;51.992;5.890;2023-03-03T10:34:15;8.75;;;3.75;;
55827;SDS011;41758;51.992;5.890;2023-03-03T10:39:23;8.60;;;4.07;;
55827;SDS011;41758;51.992;5.890;2023-03-03T10:47:25;8.70;;;4.30;;
55827;SDS011;41758;51.992;5.890;2023-03-03T11:03:45;6.53;;;3.65;;
55827;SDS011;41758;51.992;5.890;2023-03-03T11:06:41;6.53;;;3.28;;
55827;SDS011;41758;51.992;5.890;2023-03-03T11:09:47;6.95;;;3.50;;
55827;SDS011;41758;51.992;5.890;2023-03-03T11:15:11;8.77;;;3.00;;
55827;SDS011;41758;51.992;5.890;2023-03-03T11:25:34;6.97;;;3.25;;
55827;SDS011;41758;51.992;5.890;2023-03-03T11:28:42;5.18;;;2.83;;
55827;SDS011;41758;51.992;5.890;2023-03-03T11:31:20;9.68;;;3.28;;
55827;SDS011;41758;51.992;5.890;2023-03-03T11:36:33;6.03;;;3.30;;
55827;SDS011;41758;51.992;5.890;2023-03-03T11:41:37;6.72;;;2.53;;
55827;SDS011;41758;51.992;5.890;2023-03-03T11:44:24;5.10;;;3.00;;
55827;SDS011;41758;51.992;5.890;2023-03-03T11:50:04;4.20;;;2.40;;
55827;SDS011;41758;51.992;5.890;2023-03-03T11:52:44;6.55;;;2.42;;
55827;SDS011;41758;51.992;5.890;2023-03-03T12:03:24;3.97;;;2.17;;
55827;SDS011;41758;51.992;5.890;2023-03-03T12:09:03;4.30;;;2.25;;
55827;SDS011;41758;51.992;5.890;2023-03-03T12:25:38;3.35;;;1.85;;
55827;SDS011;41758;51.992;5.890;2023-03-03T12:28:19;4.13;;;2.33;;
55827;SDS011;41758;51.992;5.890;2023-03-03T12:39:28;3.60;;;2.05;;
55827;SDS011;41758;51.992;5.890;2023-03-03T12:45:04;3.92;;;2.15;;
55827;SDS011;41758;51.992;5.890;2023-03-03T12:48:27;2.53;;;1.60;;
55827;SDS011;41758;51.992;5.890;2023-03-03T12:59:19;4.30;;;1.50;;
55827;SDS011;41758;51.992;5.890;2023-03-03T13:13:41;3.78;;;2.05;;
55827;SDS011;41758;51.992;5.890;2023-03-03T13:26:57;3.63;;;1.55;;
55827;SDS011;41758;51.992;5.890;2023-03-03T13:31:58;2.92;;;1.55;;
55827;SDS011;41758;51.992;5.890;2023-03-03T13:37:30;3.67;;;1.80;;
55827;SDS011;41758;51.992;5.890;2023-03-03T13:40:02;2.63;;;1.60;;
55827;SDS011;41758;51.992;5.890;2023-03-03T13:42:46;3.65;;;2.22;;
55827;SDS011;41758;51.992;5.890;2023-03-03T13:45:17;3.03;;;1.67;;
55827;SDS011;41758;51.992;5.890;2023-03-03T13:50:46;2.97;;;1.55;;
55827;SDS011;41758;51.992;5.890;2023-03-03T14:01:31;3.33;;;2.10;;
55827;SDS011;41758;51.992;5.890;2023-03-03T14:04:49;4.28;;;2.20;;
55827;SDS011;41758;51.992;5.890;2023-03-03T14:07:28;4.07;;;2.10;;
55827;SDS011;41758;51.992;5.890;2023-03-03T14:12:48;4.07;;;2.05;;
55827;SDS011;41758;51.992;5.890;2023-03-03T14:15:55;5.00;;;1.85;;
55827;SDS011;41758;51.992;5.890;2023-03-03T14:21:10;4.13;;;2.17;;
55827;SDS011;41758;51.992;5.890;2023-03-03T14:26:31;6.38;;;2.78;;
55827;SDS011;41758;51.992;5.890;2023-03-03T14:31:52;11.82;;;3.72;;
55827;SDS011;41758;51.992;5.890;2023-03-03T14:36:49;5.28;;;2.60;;
55827;SDS011;41758;51.992;5.890;2023-03-03T14:39:37;6.07;;;2.45;;
55827;SDS011;41758;51.992;5.890;2023-03-03T14:42:28;3.75;;;2.08;;
55827;SDS011;41758;51.992;5.890;2023-03-03T14:45:04;4.97;;;2.00;;
55827;SDS011;41758;51.992;5.890;2023-03-03T14:47:54;6.13;;;2.58;;
55827;SDS011;41758;51.992;5.890;2023-03-03T14:50:33;3.85;;;2.20;;
55827;SDS011;41758;51.992;5.890;2023-03-03T14:53:10;5.47;;;2.90;;
55827;SDS011;41758;51.992;5.890;2023-03-03T14:55:41;12.38;;;5.13;;
55827;SDS011;41758;51.992;5.890;2023-03-03T15:01:07;10.75;;;6.10;;
55827;SDS011;41758;51.992;5.890;2023-03-03T15:03:34;8.30;;;5.28;;
55827;SDS011;41758;51.992;5.890;2023-03-03T15:06:10;8.85;;;3.75;;
55827;SDS011;41758;51.992;5.890;2023-03-03T15:08:40;11.30;;;5.43;;
55827;SDS011;41758;51.992;5.890;2023-03-03T15:13:41;13.77;;;5.20;;
55827;SDS011;41758;51.992;5.890;2023-03-03T15:16:11;7.07;;;3.83;;
55827;SDS011;41758;51.992;5.890;2023-03-03T15:21:27;5.65;;;3.15;;
55827;SDS011;41758;51.992;5.890;2023-03-03T15:24:05;6.70;;;3.20;;
55827;SDS011;41758;51.992;5.890;2023-03-03T15:26:43;6.97;;;3.78;;
55827;SDS011;41758;51.992;5.890;2023-03-03T15:37:41;11.45;;;5.97;;
55827;SDS011;41758;51.992;5.890;2023-03-03T15:40:28;6.82;;;3.50;;
55827;SDS011;41758;51.992;5.890;2023-03-03T15:51:45;4.78;;;2.55;;
55827;SDS011;41758;51.992;5.890;2023-03-03T16:02:49;4.43;;;2.28;;
55827;SDS011;41758;51.992;5.890;2023-03-03T16:05:28;4.57;;;2.10;;
55827;SDS011;41758;51.992;5.890;2023-03-03T16:08:15;3.35;;;2.13;;
55827;SDS011;41758;51.992;5.890;2023-03-03T16:11:06;6.13;;;2.58;;
55827;SDS011;41758;51.992;5.890;2023-03-03T16:27:27;4.82;;;2.25;;
55827;SDS011;41758;51.992;5.890;2023-03-03T16:38:36;6.75;;;2.38;;
55827;SDS011;41758;51.992;5.890;2023-03-03T16:41:12;2.60;;;1.80;;
55827;SDS011;41758;51.992;5.890;2023-03-03T16:43:53;3.58;;;2.00;;
55827;SDS011;41758;51.992;5.890;2023-03-03T16:46:40;6.25;;;2.40;;
55827;SDS011;41758;51.992;5.890;2023-03-03T16:49:16;4.53;;;2.47;;
55827;SDS011;41758;51.992;5.890;2023-03-03T16:51:55;5.47;;;2.50;;
55827;SDS011;41758;51.992;5.890;2023-03-03T16:54:42;5.65;;;2.38;;
55827;SDS011;41758;51.992;5.890;2023-03-03T16:57:52;6.55;;;2.33;;
55827;SDS011;41758;51.992;5.890;2023-03-03T17:00:29;5.93;;;2.75;;
55827;SDS011;41758;51.992;5.890;2023-03-03T17:05:54;3.13;;;1.88;;
55827;SDS011;41758;51.992;5.890;2023-03-03T17:25:04;3.95;;;1.85;;
55827;SDS011;41758;51.992;5.890;2023-03-03T17:27:55;7.88;;;3.10;;
55827;SDS011;41758;51.992;5.890;2023-03-03T17:44:21;6.10;;;2.13;;
55827;SDS011;41758;51.992;5.890;2023-03-03T17:47:10;3.47;;;1.70;;
55827;SDS011;41758;51.992;5.890;2023-03-03T18:06:04;11.75;;;6.57;;
55827;SDS011;41758;51.992;5.890;2023-03-03T18:11:33;8.45;;;4.47;;
55827;SDS011;41758;51.992;5.890;2023-03-03T18:16:40;15.73;;;8.52;;
55827;SDS011;41758;51.992;5.890;2023-03-03T18:21:57;3.67;;;2.10;;
55827;SDS011;41758;51.992;5.890;2023-03-03T18:48:56;5.97;;;2.28;;
55827;SDS011;41758;51.992;5.890;2023-03-03T18:56:46;5.03;;;2.10;;
55827;SDS011;41758;51.992;5.890;2023-03-03T19:04:40;11.82;;;2.70;;
55827;SDS011;41758;51.992;5.890;2023-03-03T19:09:56;13.43;;;4.70;;
55827;SDS011;41758;51.992;5.890;2023-03-03T19:15:40;10.23;;;3.45;;
55827;SDS011;41758;51.992;5.890;2023-03-03T19:18:00;8.18;;;2.80;;
55827;SDS011;41758;51.992;5.890;2023-03-03T19:20:39;8.88;;;2.50;;
55827;SDS011;41758;51.992;5.890;2023-03-03T19:23:17;6.05;;;2.80;;
55827;SDS011;41758;51.992;5.890;2023-03-03T19:26:19;11.15;;;2.97;;
55827;SDS011;41758;51.992;5.890;2023-03-03T19:31:32;10.43;;;4.15;;
55827;SDS011;41758;51.992;5.890;2023-03-03T19:34:09;10.20;;;3.45;;
55827;SDS011;41758;51.992;5.890;2023-03-03T19:44:55;10.45;;;3.30;;
55827;SDS011;41758;51.992;5.890;2023-03-03T19:54:17;11.35;;;4.15;;
55827;SDS011;41758;51.992;5.890;2023-03-03T19:56:47;8.68;;;3.35;;
55827;SDS011;41758;51.992;5.890;2023-03-03T20:07:32;9.32;;;3.53;;
55827;SDS011;41758;51.992;5.890;2023-03-03T20:13:23;15.38;;;4.55;;
55827;SDS011;41758;51.992;5.890;2023-03-03T20:29:31;12.63;;;3.17;;
55827;SDS011;41758;51.992;5.890;2023-03-03T20:35:14;7.03;;;2.65;;
55827;SDS011;41758;51.992;5.890;2023-03-03T20:37:46;9.60;;;2.95;;
55827;SDS011;41758;51.992;5.890;2023-03-03T20:45:52;12.05;;;2.85;;
55827;SDS011;41758;51.992;5.890;2023-03-03T20:48:33;10.30;;;3.10;;
55827;SDS011;41758;51.992;5.890;2023-03-03T20:57:25;12.25;;;2.85;;
55827;SDS011;41758;51.992;5.890;2023-03-03T21:00:21;14.00;;;3.80;;
55827;SDS011;41758;51.992;5.890;2023-03-03T21:03:09;11.52;;;3.78;;
55827;SDS011;41758;51.992;5.890;2023-03-03T21:08:54;14.05;;;3.70;;
55827;SDS011;41758;51.992;5.890;2023-03-03T21:13:52;15.98;;;3.10;;
55827;SDS011;41758;51.992;5.890;2023-03-03T21:21:42;10.50;;;2.38;;
55827;SDS011;41758;51.992;5.890;2023-03-03T21:24:11;11.82;;;3.10;;
55827;SDS011;41758;51.992;5.890;2023-03-03T21:31:59;10.02;;;2.58;;
55827;SDS011;41758;51.992;5.890;2023-03-03T21:34:27;11.02;;;3.20;;
55827;SDS011;41758;51.992;5.890;2023-03-03T21:37:07;7.95;;;3.20;;
55827;SDS011;41758;51.992;5.890;2023-03-03T21:42:09;8.32;;;2.85;;
55827;SDS011;41758;51.992;5.890;2023-03-03T21:44:44;11.32;;;2.92;;
55827;SDS011;41758;51.992;5.890;2023-03-03T21:47:11;12.63;;;3.20;;
55827;SDS011;41758;51.992;5.890;2023-03-03T21:49:39;11.57;;;3.13;;
55827;SDS011;41758;51.992;5.890;2023-03-03T21:52:06;12.73;;;3.10;;
55827;SDS011;41758;51.992;5.890;2023-03-03T21:54:32;14.80;;;3.30;;
55827;SDS011;41758;51.992;5.890;2023-03-03T21:56:58;9.32;;;3.60;;
55827;SDS011;41758;51.992;5.890;2023-03-03T21:59:24;8.70;;;2.85;;
55827;SDS011;41758;51.992;5.890;2023-03-03T22:01:49;11.68;;;4.00;;
55827;SDS011;41758;51.992;5.890;2023-03-03T22:04:15;15.27;;;3.75;;
55827;SDS011;41758;51.992;5.890;2023-03-03T22:06:41;9.15;;;2.83;;
55827;SDS011;41758;51.992;5.890;2023-03-03T22:09:07;9.65;;;2.83;;
55827;SDS011;41758;51.992;5.890;2023-03-03T22:11:33;10.00;;;2.78;;
55827;SDS011;41758;51.992;5.890;2023-03-03T22:13:58;9.20;;;2.78;;
55827;SDS011;41758;51.992;5.890;2023-03-03T22:16:24;8.80;;;2.83;;
55827;SDS011;41758;51.992;5.890;2023-03-03T22:18:50;8.95;;;3.20;;
55827;SDS011;41758;51.992;5.890;2023-03-03T22:21:15;14.05;;;3.08;;
55827;SDS011;41758;51.992;5.890;2023-03-03T22:23:41;14.60;;;3.35;;
55827;SDS011;41758;51.992;5.890;2023-03-03T22:26:07;10.68;;;2.45;;
55827;SDS011;41758;51.992;5.890;2023-03-03T22:28:33;6.88;;;2.55;;